createdAt,value
2018-11-07T00:01:00.112Z,39.20
2018-11-07T00:03:28.109Z,38.87
2018-11-07T00:05:56.177Z,38.73
2018-11-07T00:08:24.366Z,39.87
2018-11-07T00:10:52.342Z,39.33
2018-11-07T00:13:20.386Z,39.53
2018-11-07T00:15:48.679Z,40.73
2018-11-07T00:18:16.679Z,39.17
2018-11-07T00:20:44.616Z,40.27
2018-11-07T00:23:12.674Z,41.37
2018-11-07T00:25:40.799Z,39.97
2018-11-07T00:28:08.877Z,42.50
2018-11-07T00:30:37.000Z,41.80
2018-11-07T00:33:05.420Z,41.40
2018-11-07T00:35:33.829Z,40.80
2018-11-07T00:38:01.961Z,41.30
2018-11-07T00:40:30.216Z,42.97
2018-11-07T00:42:58.332Z,43.73
2018-11-07T00:45:26.461Z,41.23
2018-11-07T00:47:54.380Z,42.53
2018-11-07T00:50:22.594Z,41.00
2018-11-07T00:52:50.659Z,43.43
2018-11-07T00:55:18.651Z,41.17
2018-11-07T00:57:47.041Z,42.70
2018-11-07T01:00:16.744Z,40.33
2018-11-07T01:02:45.406Z,41.10
2018-11-07T01:05:13.871Z,41.90
2018-11-07T01:07:42.937Z,41.30
2018-11-07T01:10:11.057Z,41.00
2018-11-07T01:12:39.826Z,41.53
2018-11-07T01:15:08.871Z,41.90
2018-11-07T01:17:36.950Z,40.67
2018-11-07T01:20:06.121Z,39.93
2018-11-07T01:22:34.480Z,40.73
2018-11-07T01:25:02.608Z,41.13
2018-11-07T01:27:30.637Z,40.87
2018-11-07T01:29:59.949Z,40.80
2018-11-07T01:32:27.973Z,40.17
2018-11-07T01:34:56.725Z,40.87
2018-11-07T01:37:24.865Z,35.97
2018-11-07T01:39:53.041Z,38.27
2018-11-07T01:42:21.081Z,39.37
2018-11-07T01:44:49.231Z,38.67
2018-11-07T01:47:17.317Z,39.00
2018-11-07T01:49:45.416Z,39.97
2018-11-07T01:52:13.561Z,40.03
2018-11-07T01:54:41.614Z,40.70
2018-11-07T01:57:09.895Z,40.60
2018-11-07T01:59:38.119Z,40.90
2018-11-07T02:02:06.249Z,40.33
2018-11-07T02:04:34.643Z,40.27
2018-11-07T02:07:02.909Z,40.10
2018-11-07T02:09:31.016Z,40.90
2018-11-07T02:11:59.056Z,39.60
2018-11-07T02:14:27.184Z,40.20
2018-11-07T02:16:55.138Z,40.87
2018-11-07T02:19:23.069Z,39.50
2018-11-07T02:21:51.365Z,40.40
2018-11-07T02:24:19.516Z,41.20
2018-11-07T02:26:47.979Z,39.57
2018-11-07T02:29:16.228Z,41.07
2018-11-07T02:31:45.811Z,40.07
2018-11-07T02:34:14.918Z,39.87
2018-11-07T02:36:43.423Z,40.67
2018-11-07T02:39:12.952Z,40.13
2018-11-07T02:41:41.642Z,40.57
2018-11-07T02:44:10.785Z,40.00
2018-11-07T02:46:39.031Z,39.70
2018-11-07T02:49:07.071Z,39.20
2018-11-07T02:51:35.391Z,38.90
2018-11-07T02:54:03.813Z,39.17
2018-11-07T02:56:32.012Z,39.33
2018-11-07T02:59:00.229Z,38.70
2018-11-07T03:01:29.092Z,38.87
2018-11-07T03:03:57.308Z,38.53
2018-11-07T03:06:25.572Z,40.13
2018-11-07T03:08:53.840Z,39.27
2018-11-07T03:11:22.043Z,39.70
2018-11-07T03:13:50.198Z,38.27
2018-11-07T03:16:18.384Z,39.83
2018-11-07T03:18:46.651Z,40.70
2018-11-07T03:21:14.725Z,40.03
2018-11-07T03:23:43.300Z,37.47
2018-11-07T03:26:11.639Z,38.07
2018-11-07T03:28:39.948Z,37.40
2018-11-07T03:31:08.176Z,37.23
2018-11-07T03:33:37.280Z,38.50
2018-11-07T03:36:05.659Z,43.03
2018-11-07T03:38:33.852Z,35.73
2018-11-07T03:41:02.033Z,37.60
2018-11-07T03:43:30.072Z,35.63
2018-11-07T03:45:59.418Z,36.47
2018-11-07T03:48:29.250Z,35.40
2018-11-07T03:50:57.651Z,34.30
2018-11-07T03:53:26.057Z,34.33
2018-11-07T03:55:54.284Z,35.87
2018-11-07T03:58:23.051Z,34.60
2018-11-07T04:00:51.102Z,33.77
2018-11-07T04:03:19.341Z,33.67
2018-11-07T04:05:47.521Z,34.30
2018-11-07T04:08:15.434Z,34.73
2018-11-07T04:10:43.589Z,33.47
2018-11-07T04:13:11.944Z,32.70
2018-11-07T04:15:40.157Z,32.73
2018-11-07T04:18:08.393Z,32.47
2018-11-07T04:20:36.507Z,32.97
2018-11-07T04:23:04.859Z,33.80
2018-11-07T04:25:33.016Z,34.93
2018-11-07T04:28:01.514Z,34.47
2018-11-07T04:30:29.551Z,34.07
2018-11-07T04:32:57.995Z,33.87
2018-11-07T04:35:26.210Z,34.77
2018-11-07T04:37:54.306Z,34.50
2018-11-07T04:40:22.490Z,34.80
2018-11-07T04:42:52.906Z,36.30
2018-11-07T04:45:20.976Z,34.87
2018-11-07T04:47:49.545Z,36.07
2018-11-07T04:50:17.657Z,34.97
2018-11-07T04:52:52.406Z,35.07
2018-11-07T04:55:21.062Z,34.33
2018-11-07T04:57:49.167Z,35.13
2018-11-07T05:00:18.036Z,34.50
2018-11-07T05:02:46.319Z,36.07
2018-11-07T05:05:15.207Z,35.37
2018-11-07T05:07:43.402Z,34.90
2018-11-07T05:10:12.039Z,34.40
2018-11-07T05:12:40.387Z,34.17
2018-11-07T05:15:09.187Z,34.17
2018-11-07T05:17:37.488Z,34.00
2018-11-07T05:20:07.506Z,35.07
2018-11-07T05:22:35.655Z,35.00
2018-11-07T05:25:03.795Z,34.63
2018-11-07T05:27:31.852Z,34.93
2018-11-07T05:30:00.584Z,34.47
2018-11-07T05:32:28.499Z,35.03
2018-11-07T05:34:56.830Z,34.47
2018-11-07T05:37:25.096Z,32.83
2018-11-07T05:39:53.396Z,33.57
2018-11-07T05:42:21.732Z,32.53
2018-11-07T05:44:49.763Z,32.67
2018-11-07T05:47:18.491Z,33.03
2018-11-07T05:49:46.863Z,32.27
2018-11-07T05:52:15.299Z,33.67
2018-11-07T05:54:42.985Z,32.40
2018-11-07T05:57:11.108Z,33.00
2018-11-07T05:59:38.717Z,31.70
2018-11-07T06:02:06.515Z,33.40
2018-11-07T06:04:34.308Z,32.40
2018-11-07T06:07:02.052Z,33.03
2018-11-07T06:09:29.908Z,32.47
2018-11-07T06:11:57.732Z,32.47
2018-11-07T06:14:25.539Z,32.70
2018-11-07T06:16:54.197Z,32.27
2018-11-07T06:19:22.994Z,32.97
2018-11-07T06:21:52.498Z,32.80
2018-11-07T06:24:20.178Z,31.83
2018-11-07T06:26:48.180Z,31.43
2018-11-07T06:29:16.781Z,32.00
2018-11-07T06:31:45.063Z,31.87
2018-11-07T06:34:13.140Z,32.03
2018-11-07T06:36:40.886Z,32.67
2018-11-07T06:39:09.894Z,31.57
2018-11-07T06:41:37.857Z,31.23
2018-11-07T06:44:06.012Z,31.70
2018-11-07T06:46:34.075Z,33.33
2018-11-07T06:49:02.038Z,32.40
2018-11-07T06:51:29.857Z,31.80
2018-11-07T06:53:57.654Z,31.33
2018-11-07T06:56:25.811Z,31.20
2018-11-07T06:58:54.091Z,30.47
2018-11-07T07:01:22.024Z,31.20
2018-11-07T07:03:50.582Z,30.90
2018-11-07T07:06:18.776Z,31.20
2018-11-07T07:08:46.542Z,31.50
2018-11-07T07:11:14.751Z,31.13
2018-11-07T07:13:42.668Z,31.57
2018-11-07T07:16:11.409Z,31.03
2018-11-07T07:18:39.119Z,30.93
2018-11-07T07:21:06.876Z,30.53
2018-11-07T07:23:34.659Z,31.00
2018-11-07T07:26:02.674Z,29.57
2018-11-07T07:28:30.366Z,30.33
2018-11-07T07:31:05.931Z,29.90
2018-11-07T07:33:39.663Z,29.87
2018-11-07T07:36:13.766Z,31.23
2018-11-07T07:38:41.504Z,30.33
2018-11-07T07:41:15.274Z,31.40
2018-11-07T07:43:51.781Z,30.83
2018-11-07T07:46:28.761Z,30.00
2018-11-07T07:48:56.738Z,29.87
2018-11-07T07:54:14.126Z,29.80
2018-11-07T07:56:42.338Z,29.50
2018-11-07T07:59:11.113Z,31.00
2018-11-07T08:01:40.989Z,29.43
2018-11-07T08:04:08.811Z,29.57
2018-11-07T08:06:38.497Z,29.10
2018-11-07T08:09:08.968Z,30.17
2018-11-07T08:11:39.547Z,28.93
2018-11-07T08:14:09.940Z,29.43
2018-11-07T08:16:39.323Z,29.47
2018-11-07T08:19:09.714Z,27.47
2018-11-07T08:21:38.207Z,28.00
2018-11-07T08:24:07.464Z,28.57
2018-11-07T08:26:36.363Z,29.13
2018-11-07T08:31:46.334Z,27.70
2018-11-07T08:34:14.341Z,27.43
2018-11-07T08:36:53.238Z,27.97
2018-11-07T08:39:21.435Z,27.47
2018-11-07T08:41:54.440Z,26.37
2018-11-07T08:44:25.926Z,26.97
2018-11-07T08:46:54.104Z,27.57
2018-11-07T08:49:24.775Z,26.50
2018-11-07T08:55:22.039Z,26.37
2018-11-07T08:57:55.821Z,25.93
2018-11-07T09:00:24.125Z,26.03
2018-11-07T09:02:52.318Z,26.03
2018-11-07T09:05:21.390Z,26.00
2018-11-07T09:07:49.527Z,25.73
2018-11-07T09:10:18.422Z,25.53
2018-11-07T09:12:46.779Z,23.60
2018-11-07T09:15:16.600Z,25.40
2018-11-07T09:17:44.359Z,25.40
2018-11-07T09:20:17.936Z,26.73
2018-11-07T09:22:45.643Z,24.77
2018-11-07T09:25:15.275Z,24.80
2018-11-07T09:27:43.698Z,25.23
2018-11-07T09:30:14.216Z,24.87
2018-11-07T09:32:41.773Z,24.80
2018-11-07T09:35:10.863Z,24.13
2018-11-07T09:37:38.463Z,25.07
2018-11-07T09:40:08.313Z,26.00
2018-11-07T09:42:36.821Z,25.20
2018-11-07T09:45:05.802Z,24.10
2018-11-07T09:47:33.563Z,25.17
2018-11-07T09:50:01.317Z,24.63
2018-11-07T09:52:29.189Z,25.03
2018-11-07T09:54:56.827Z,24.30
2018-11-07T09:57:24.747Z,25.03
2018-11-07T09:59:52.675Z,25.90
2018-11-07T10:02:20.544Z,25.07
2018-11-07T10:04:48.084Z,24.33
2018-11-07T10:07:16.281Z,25.00
2018-11-07T10:09:43.959Z,25.07
2018-11-07T10:12:11.483Z,24.87
2018-11-07T10:14:39.055Z,23.97
2018-11-07T10:17:06.622Z,24.33
2018-11-07T10:19:34.185Z,24.53
2018-11-07T10:22:01.850Z,24.83
2018-11-07T10:24:29.356Z,23.73
2018-11-07T10:26:56.988Z,24.77
2018-11-07T10:29:24.808Z,26.23
2018-11-07T10:31:52.727Z,23.87
2018-11-07T10:34:20.361Z,24.40
2018-11-07T10:36:47.881Z,25.70
2018-11-07T10:39:15.541Z,26.20
2018-11-07T10:41:43.625Z,25.60
2018-11-07T10:44:11.154Z,25.93
2018-11-07T10:46:38.708Z,24.20
2018-11-07T10:49:06.302Z,25.33
2018-11-07T10:51:34.002Z,24.83
2018-11-07T10:54:01.812Z,24.60
2018-11-07T10:56:29.314Z,24.00
2018-11-07T10:58:56.846Z,23.17
2018-11-07T11:01:30.015Z,24.43
2018-11-07T11:03:57.518Z,24.50
2018-11-07T11:06:25.168Z,23.20
2018-11-07T11:08:53.362Z,23.10
2018-11-07T11:11:20.928Z,22.47
2018-11-07T11:13:48.613Z,23.97
2018-11-07T11:16:16.139Z,26.67
2018-11-07T11:18:43.617Z,22.60
2018-11-07T11:21:11.172Z,22.83
2018-11-07T11:23:38.745Z,23.00
2018-11-07T11:26:06.221Z,23.03
2018-11-07T11:28:33.861Z,22.67
2018-11-07T11:31:03.342Z,23.37
2018-11-07T11:33:30.894Z,22.70
2018-11-07T11:35:58.458Z,23.57
2018-11-07T11:38:26.005Z,25.73
2018-11-07T11:40:53.562Z,24.50
2018-11-07T11:43:21.149Z,23.00
2018-11-07T11:45:48.715Z,22.40
2018-11-07T11:48:16.331Z,23.27
2018-11-07T11:50:43.948Z,22.17
2018-11-07T11:53:11.544Z,22.67
2018-11-07T11:55:39.161Z,22.87
2018-11-07T11:58:06.768Z,21.67
2018-11-07T12:00:34.879Z,22.63
2018-11-07T12:03:02.595Z,21.03
2018-11-07T12:05:30.265Z,21.73
2018-11-07T12:07:57.933Z,21.27
2018-11-07T12:10:26.112Z,21.77
2018-11-07T12:12:55.127Z,22.53
2018-11-07T12:15:24.076Z,21.70
2018-11-07T12:17:52.168Z,22.33
2018-11-07T12:20:19.774Z,21.77
2018-11-07T12:22:47.338Z,21.83
2018-11-07T12:25:15.576Z,20.80
2018-11-07T12:27:43.647Z,23.00
2018-11-07T12:30:14.499Z,22.77
2018-11-07T12:32:43.270Z,21.57
2018-11-07T12:35:11.339Z,23.23
2018-11-07T12:37:39.139Z,21.30
2018-11-07T12:40:07.265Z,22.27
2018-11-07T12:42:35.658Z,21.63
2018-11-07T12:45:03.493Z,21.33
2018-11-07T12:47:31.099Z,23.20
2018-11-07T12:49:59.217Z,20.47
2018-11-07T12:52:26.609Z,21.07
2018-11-07T12:54:54.808Z,20.40
2018-11-07T12:57:22.443Z,20.90
2018-11-07T12:59:49.987Z,21.00
2018-11-07T13:02:17.907Z,21.07
2018-11-07T13:04:45.488Z,20.20
2018-11-07T13:07:12.998Z,19.07
2018-11-07T13:09:40.606Z,20.57
2018-11-07T13:12:08.297Z,21.43
2018-11-07T13:14:35.785Z,21.50
2018-11-07T13:17:03.340Z,21.67
2018-11-07T13:19:30.886Z,21.00
2018-11-07T13:21:58.528Z,22.13
2018-11-07T13:24:26.495Z,21.43
2018-11-07T13:26:54.084Z,22.23
2018-11-07T13:29:21.777Z,22.43
2018-11-07T13:31:49.324Z,24.67
2018-11-07T13:34:16.833Z,21.80
2018-11-07T13:36:44.424Z,22.10
2018-11-07T13:39:13.390Z,21.60
2018-11-07T13:41:41.372Z,23.07
2018-11-07T13:44:09.037Z,21.10
2018-11-07T13:46:37.385Z,22.37
2018-11-07T13:49:05.854Z,22.60
2018-11-07T13:51:33.834Z,22.77
2018-11-07T13:54:01.759Z,23.53
2018-11-07T13:56:29.344Z,23.03
2018-11-07T13:58:57.582Z,22.20
2018-11-07T14:01:25.155Z,22.17
2018-11-07T14:03:53.417Z,21.63
2018-11-07T14:06:21.595Z,22.20
2018-11-07T14:08:49.600Z,21.30
2018-11-07T14:11:17.480Z,22.40
2018-11-07T14:13:45.534Z,23.53
2018-11-07T14:16:13.654Z,23.07
2018-11-07T14:18:41.252Z,22.07
2018-11-07T14:21:09.440Z,21.70
2018-11-07T14:23:37.873Z,21.77
2018-11-07T14:26:05.850Z,22.10
2018-11-07T14:28:34.171Z,22.47
2018-11-07T14:31:02.381Z,21.90
2018-11-07T14:33:31.290Z,22.47
2018-11-07T14:35:59.516Z,22.20
2018-11-07T14:38:28.141Z,23.17
2018-11-07T14:40:56.334Z,23.00
2018-11-07T14:43:26.050Z,22.27
2018-11-07T14:45:54.392Z,23.90
2018-11-07T14:48:22.748Z,22.87
2018-11-07T14:50:50.940Z,23.43
2018-11-07T14:53:18.914Z,23.60
2018-11-07T14:55:47.275Z,23.43
2018-11-07T14:58:16.201Z,24.20
2018-11-07T15:00:44.494Z,23.20
2018-11-07T15:03:12.952Z,24.87
2018-11-07T15:05:40.976Z,25.00
2018-11-07T15:08:09.315Z,24.13
2018-11-07T15:10:37.670Z,23.73
2018-11-07T15:13:05.590Z,24.03
2018-11-07T15:15:33.404Z,24.53
2018-11-07T15:18:01.528Z,25.93
2018-11-07T15:20:29.726Z,25.20
2018-11-07T15:23:01.328Z,25.13
2018-11-07T15:25:29.332Z,25.73
2018-11-07T15:27:57.310Z,24.80
2018-11-07T15:30:25.581Z,25.30
2018-11-07T15:32:53.666Z,24.27
2018-11-07T15:35:21.903Z,23.60
2018-11-07T15:37:49.955Z,26.07
2018-11-07T15:40:18.352Z,24.13
2018-11-07T15:42:46.694Z,25.03
2018-11-07T15:45:16.557Z,23.63
2018-11-07T15:47:45.040Z,24.10
2018-11-07T15:50:18.579Z,23.10
2018-11-07T15:52:47.429Z,24.93
2018-11-07T15:55:17.665Z,26.70
2018-11-07T15:57:45.726Z,26.50
2018-11-07T16:00:15.824Z,29.87
2018-11-07T16:02:44.054Z,26.33
2018-11-07T16:05:15.483Z,28.20
2018-11-07T16:07:43.517Z,27.67
2018-11-07T16:10:12.745Z,28.07
2018-11-07T16:12:41.026Z,26.40
2018-11-07T16:15:14.771Z,28.87
2018-11-07T16:17:42.968Z,29.27
2018-11-07T16:20:12.140Z,29.03
2018-11-07T16:22:45.491Z,29.23
2018-11-07T16:25:13.416Z,30.40
2018-11-07T16:27:42.117Z,29.33
2018-11-07T16:30:12.324Z,31.57
2018-11-07T16:32:40.304Z,30.00
2018-11-07T16:35:09.479Z,29.77
2018-11-07T16:37:37.561Z,31.13
2018-11-07T16:40:07.466Z,33.17
2018-11-07T16:42:35.820Z,31.20
2018-11-07T16:45:04.160Z,31.03
2018-11-07T16:47:32.192Z,31.80
2018-11-07T16:50:00.054Z,30.97
2018-11-07T16:52:28.782Z,31.07
2018-11-07T16:54:56.733Z,32.33
2018-11-07T16:57:24.639Z,31.70
2018-11-07T16:59:52.821Z,30.33
2018-11-07T17:02:20.653Z,31.40
2018-11-07T17:04:48.779Z,30.40
2018-11-07T17:07:16.813Z,29.20
2018-11-07T17:09:44.692Z,32.33
2018-11-07T17:12:13.578Z,31.83
2018-11-07T17:14:41.418Z,30.53
2018-11-07T17:17:09.426Z,31.60
2018-11-07T17:19:37.299Z,31.70
2018-11-07T17:22:18.259Z,31.03
2018-11-07T17:24:56.772Z,30.20
2018-11-07T17:27:24.951Z,30.00
2018-11-07T17:29:59.650Z,30.47
2018-11-07T17:32:28.007Z,31.07
2018-11-07T17:34:59.696Z,31.97
2018-11-07T17:37:29.411Z,32.40
2018-11-07T17:39:57.532Z,34.43
2018-11-07T17:42:30.983Z,34.30
2018-11-07T17:45:15.565Z,35.53
2018-11-07T17:47:43.972Z,35.77
2018-11-07T17:50:16.411Z,33.03
2018-11-07T17:52:44.877Z,34.00
2018-11-07T17:55:14.860Z,36.60
2018-11-07T17:57:43.061Z,34.83
2018-11-07T18:00:13.988Z,41.30
2018-11-07T18:02:47.103Z,36.07
2018-11-07T18:05:20.126Z,34.37
2018-11-07T18:07:48.280Z,32.60
2018-11-07T18:10:17.545Z,32.53
2018-11-07T18:12:46.183Z,35.67
2018-11-07T18:15:14.506Z,35.23
2018-11-07T18:17:47.813Z,34.90
2018-11-07T18:20:18.531Z,35.87
2018-11-07T18:22:46.738Z,35.70
2018-11-07T18:25:15.528Z,33.83
2018-11-07T18:28:14.641Z,34.50
2018-11-07T18:30:43.759Z,35.30
2018-11-07T18:33:15.161Z,33.33
2018-11-07T18:35:43.453Z,31.57
2018-11-07T18:38:11.501Z,32.80
2018-11-07T18:40:39.759Z,31.90
2018-11-07T18:43:08.264Z,32.47
2018-11-07T18:45:44.379Z,33.50
2018-11-07T18:48:20.394Z,33.13
2018-11-07T18:50:48.585Z,33.00
2018-11-07T18:53:17.478Z,33.00
2018-11-07T18:55:50.336Z,32.20
2018-11-07T19:00:55.510Z,34.90
2018-11-07T19:03:23.352Z,37.97
2018-11-07T19:05:51.006Z,37.33
2018-11-07T19:08:18.679Z,34.20
2018-11-07T19:10:46.289Z,33.87
2018-11-07T19:13:13.896Z,36.33
2018-11-07T19:15:41.516Z,35.40
2018-11-07T19:18:09.109Z,34.33
2018-11-07T19:20:39.599Z,34.77
2018-11-07T19:23:08.389Z,34.57
2018-11-07T19:25:38.660Z,34.47
2018-11-07T19:28:08.868Z,32.70
2018-11-07T19:30:38.803Z,36.40
2018-11-07T19:33:07.848Z,33.63
2018-11-07T19:35:35.416Z,33.47
2018-11-07T19:38:03.059Z,34.53
2018-11-07T19:40:30.805Z,33.10
2018-11-07T19:42:58.463Z,33.57
2018-11-07T19:45:28.156Z,35.87
2018-11-07T19:47:55.864Z,35.60
2018-11-07T19:50:23.645Z,36.63
2018-11-07T19:52:51.671Z,35.20
2018-11-07T19:55:20.586Z,36.80
2018-11-07T19:57:51.439Z,37.10
2018-11-07T20:00:19.010Z,36.97
2018-11-07T20:02:46.886Z,36.53
2018-11-07T20:05:14.560Z,36.17
2018-11-07T20:07:43.188Z,35.13
2018-11-07T20:10:13.043Z,36.47
2018-11-07T20:12:40.659Z,35.40
2018-11-07T20:15:09.603Z,36.53
2018-11-07T20:17:37.334Z,37.83
2018-11-07T20:20:05.307Z,36.47
2018-11-07T20:22:33.050Z,38.17
2018-11-07T20:25:00.643Z,37.70
2018-11-07T20:27:28.469Z,37.53
2018-11-07T20:29:56.231Z,37.87
2018-11-07T20:32:23.800Z,39.63
2018-11-07T20:34:51.670Z,38.40
2018-11-07T20:37:19.496Z,38.47
2018-11-07T20:39:47.140Z,37.97
2018-11-07T20:45:50.454Z,37.13
2018-11-07T20:48:18.131Z,37.83
2018-11-07T20:50:45.791Z,38.23
2018-11-07T20:53:13.479Z,38.97
2018-11-07T20:55:41.166Z,37.93
2018-11-07T20:58:09.789Z,38.70
2018-11-07T21:00:37.818Z,38.77
2018-11-07T21:03:05.578Z,37.03
2018-11-07T21:05:33.206Z,39.60
2018-11-07T21:08:00.883Z,38.27
2018-11-07T21:10:28.503Z,37.97
2018-11-07T21:12:56.552Z,39.67
2018-11-07T21:15:24.585Z,36.90
2018-11-07T21:17:52.182Z,37.80
2018-11-07T21:20:20.165Z,36.43
2018-11-07T21:22:48.004Z,35.00
2018-11-07T21:25:15.880Z,36.77
2018-11-07T21:27:43.615Z,36.93
2018-11-07T21:30:13.341Z,35.57
2018-11-07T21:32:41.413Z,34.67
2018-11-07T21:35:09.181Z,34.77
2018-11-07T21:37:36.959Z,35.50
2018-11-07T21:40:12.484Z,35.47
2018-11-07T21:42:42.267Z,36.03
2018-11-07T21:45:11.455Z,34.80
2018-11-07T21:47:40.025Z,35.57
2018-11-07T21:50:08.859Z,36.97
2018-11-07T21:52:37.130Z,37.17
2018-11-07T21:55:05.309Z,35.53
2018-11-07T21:57:32.959Z,35.10
2018-11-07T22:00:01.389Z,37.57
2018-11-07T22:02:29.077Z,36.10
2018-11-07T22:04:56.688Z,35.57
2018-11-07T22:07:25.094Z,38.00
2018-11-07T22:09:52.724Z,36.20
2018-11-07T22:12:20.454Z,37.23
2018-11-07T22:14:48.080Z,36.73
2018-11-07T22:17:18.766Z,34.83
2018-11-07T22:19:57.206Z,36.47
2018-11-07T22:22:24.922Z,36.00
2018-11-07T22:24:52.703Z,35.13
2018-11-07T22:27:20.806Z,35.27
2018-11-07T22:29:48.956Z,36.20
2018-11-07T22:32:16.915Z,34.87
2018-11-07T22:34:45.225Z,36.80
2018-11-07T22:37:13.475Z,35.80
2018-11-07T22:39:41.500Z,36.93
2018-11-07T22:42:09.990Z,36.93
2018-11-07T22:44:38.280Z,36.23
2018-11-07T22:47:06.252Z,35.87
2018-11-07T22:49:34.197Z,37.30
2018-11-07T22:52:02.300Z,36.33
2018-11-07T22:54:30.603Z,35.70
2018-11-07T22:56:58.459Z,36.90
2018-11-07T22:59:26.386Z,37.00
2018-11-07T23:01:54.368Z,35.93
2018-11-07T23:04:22.259Z,36.53
2018-11-07T23:06:50.209Z,38.57
2018-11-07T23:09:18.063Z,37.20
2018-11-07T23:11:45.904Z,37.30
2018-11-07T23:14:14.697Z,38.07
2018-11-07T23:16:43.265Z,36.67
2018-11-07T23:19:11.489Z,36.50
2018-11-07T23:21:39.341Z,36.17
2018-11-07T23:24:07.741Z,36.83
2018-11-07T23:26:35.568Z,37.10
2018-11-07T23:29:03.472Z,37.90
2018-11-07T23:31:31.328Z,35.87
2018-11-07T23:33:59.944Z,36.07
2018-11-07T23:36:28.042Z,35.93
2018-11-07T23:38:56.168Z,36.53
2018-11-07T23:41:24.195Z,35.77
2018-11-07T23:43:52.333Z,35.13
2018-11-07T23:46:20.174Z,35.57
2018-11-07T23:48:48.389Z,36.40
2018-11-07T23:51:16.250Z,36.30
2018-11-07T23:53:44.062Z,35.50
2018-11-07T23:56:11.896Z,35.97
2018-11-07T23:58:39.699Z,35.67
